sensor_id;sensor_type;location;lat;lon;timestamp;temperature;humidity
3942;DHT22;1985;48.592;8.850;2022-08-19T00:01:27;22.50;99.90
3942;DHT22;1985;48.592;8.850;2022-08-19T00:03:55;22.50;99.90
3942;DHT22;1985;48.592;8.850;2022-08-19T00:06:21;22.50;99.90
3942;DHT22;1985;48.592;8.850;2022-08-19T00:08:47;22.40;99.90
3942;DHT22;1985;48.592;8.850;2022-08-19T00:11:13;22.40;99.90
3942;DHT22;1985;48.592;8.850;2022-08-19T00:13:39;22.40;99.90
3942;DHT22;1985;48.592;8.850;2022-08-19T00:16:06;22.30;99.90
3942;DHT22;1985;48.592;8.850;2022-08-19T00:18:33;22.30;99.90
3942;DHT22;1985;48.592;8.850;2022-08-19T00:20:59;22.20;99.90
3942;DHT22;1985;48.592;8.850;2022-08-19T00:23:25;22.30;99.90
3942;DHT22;1985;48.592;8.850;2022-08-19T00:25:51;22.30;99.90
3942;DHT22;1985;48.592;8.850;2022-08-19T00:28:18;22.30;99.90
3942;DHT22;1985;48.592;8.850;2022-08-19T00:30:43;22.30;99.90
3942;DHT22;1985;48.592;8.850;2022-08-19T00:33:10;22.20;99.90
3942;DHT22;1985;48.592;8.850;2022-08-19T00:35:35;22.20;99.90
3942;DHT22;1985;48.592;8.850;2022-08-19T00:38:04;22.20;99.90
3942;DHT22;1985;48.592;8.850;2022-08-19T00:40:31;22.20;99.90
3942;DHT22;1985;48.592;8.850;2022-08-19T00:42:56;22.10;99.90
3942;DHT22;1985;48.592;8.850;2022-08-19T00:45:24;22.10;99.90
3942;DHT22;1985;48.592;8.850;2022-08-19T00:47:50;22.10;99.90
3942;DHT22;1985;48.592;8.850;2022-08-19T00:50:18;22.10;99.90
3942;DHT22;1985;48.592;8.850;2022-08-19T00:52:48;22.00;99.90
3942;DHT22;1985;48.592;8.850;2022-08-19T00:55:18;22.00;99.90
3942;DHT22;1985;48.592;8.850;2022-08-19T00:57:50;22.00;99.90
3942;DHT22;1985;48.592;8.850;2022-08-19T01:00:18;21.90;99.90
3942;DHT22;1985;48.592;8.850;2022-08-19T01:02:45;21.80;99.90
3942;DHT22;1985;48.592;8.850;2022-08-19T01:05:14;21.70;99.90
3942;DHT22;1985;48.592;8.850;2022-08-19T01:07:42;21.80;99.90
3942;DHT22;1985;48.592;8.850;2022-08-19T01:10:14;21.80;99.90
3942;DHT22;1985;48.592;8.850;2022-08-19T01:12:40;21.90;99.90
3942;DHT22;1985;48.592;8.850;2022-08-19T01:15:09;21.80;99.90
3942;DHT22;1985;48.592;8.850;2022-08-19T01:17:36;21.80;99.90
3942;DHT22;1985;48.592;8.850;2022-08-19T01:20:04;21.80;99.90
3942;DHT22;1985;48.592;8.850;2022-08-19T01:23:02;21.80;99.90
3942;DHT22;1985;48.592;8.850;2022-08-19T01:25:32;21.80;99.90
3942;DHT22;1985;48.592;8.850;2022-08-19T01:28:00;21.80;99.90
3942;DHT22;1985;48.592;8.850;2022-08-19T01:30:31;21.80;99.90
3942;DHT22;1985;48.592;8.850;2022-08-19T01:32:57;21.70;99.90
3942;DHT22;1985;48.592;8.850;2022-08-19T01:35:29;21.60;99.90
3942;DHT22;1985;48.592;8.850;2022-08-19T01:38:07;21.20;99.90
3942;DHT22;1985;48.592;8.850;2022-08-19T01:40:36;20.60;99.90
3942;DHT22;1985;48.592;8.850;2022-08-19T01:43:03;20.20;99.90
3942;DHT22;1985;48.592;8.850;2022-08-19T01:45:31;20.10;99.90
3942;DHT22;1985;48.592;8.850;2022-08-19T01:47:58;20.10;99.90
3942;DHT22;1985;48.592;8.850;2022-08-19T01:50:24;19.80;99.90
3942;DHT22;1985;48.592;8.850;2022-08-19T01:52:49;19.50;99.90
3942;DHT22;1985;48.592;8.850;2022-08-19T01:55:19;19.40;99.90
3942;DHT22;1985;48.592;8.850;2022-08-19T01:57:49;19.10;99.90
3942;DHT22;1985;48.592;8.850;2022-08-19T02:00:20;18.90;99.90
3942;DHT22;1985;48.592;8.850;2022-08-19T02:02:46;18.80;99.90
3942;DHT22;1985;48.592;8.850;2022-08-19T02:05:12;18.70;99.90
3942;DHT22;1985;48.592;8.850;2022-08-19T02:07:39;18.60;99.90
3942;DHT22;1985;48.592;8.850;2022-08-19T02:10:08;18.50;99.90
3942;DHT22;1985;48.592;8.850;2022-08-19T02:12:35;18.60;99.90
3942;DHT22;1985;48.592;8.850;2022-08-19T02:15:01;18.70;99.90
3942;DHT22;1985;48.592;8.850;2022-08-19T02:17:29;18.90;99.90
3942;DHT22;1985;48.592;8.850;2022-08-19T02:19:55;19.10;99.90
3942;DHT22;1985;48.592;8.850;2022-08-19T02:22:22;19.20;99.90
3942;DHT22;1985;48.592;8.850;2022-08-19T02:24:48;19.30;99.90
3942;DHT22;1985;48.592;8.850;2022-08-19T02:27:14;19.40;99.90
3942;DHT22;1985;48.592;8.850;2022-08-19T02:29:42;19.60;99.90
3942;DHT22;1985;48.592;8.850;2022-08-19T02:32:10;19.60;99.90
3942;DHT22;1985;48.592;8.850;2022-08-19T02:34:35;19.40;99.90
3942;DHT22;1985;48.592;8.850;2022-08-19T02:37:01;19.30;99.90
3942;DHT22;1985;48.592;8.850;2022-08-19T02:39:27;19.30;99.90
3942;DHT22;1985;48.592;8.850;2022-08-19T02:41:52;19.60;99.90
3942;DHT22;1985;48.592;8.850;2022-08-19T02:44:18;19.70;99.90
3942;DHT22;1985;48.592;8.850;2022-08-19T02:46:45;19.80;99.90
3942;DHT22;1985;48.592;8.850;2022-08-19T02:49:11;19.90;99.90
3942;DHT22;1985;48.592;8.850;2022-08-19T02:51:40;20.00;99.90
3942;DHT22;1985;48.592;8.850;2022-08-19T02:54:07;20.10;99.90
3942;DHT22;1985;48.592;8.850;2022-08-19T02:56:38;20.20;99.90
3942;DHT22;1985;48.592;8.850;2022-08-19T02:59:05;20.20;99.90
3942;DHT22;1985;48.592;8.850;2022-08-19T03:01:34;20.30;99.90
3942;DHT22;1985;48.592;8.850;2022-08-19T03:04:02;20.20;99.90
3942;DHT22;1985;48.592;8.850;2022-08-19T03:06:29;20.20;99.90
3942;DHT22;1985;48.592;8.850;2022-08-19T03:08:55;20.20;99.90
3942;DHT22;1985;48.592;8.850;2022-08-19T03:11:29;20.10;99.90
3942;DHT22;1985;48.592;8.850;2022-08-19T03:13:56;20.20;99.90
3942;DHT22;1985;48.592;8.850;2022-08-19T03:16:24;20.20;99.90
3942;DHT22;1985;48.592;8.850;2022-08-19T03:18:50;20.30;99.90
3942;DHT22;1985;48.592;8.850;2022-08-19T03:21:18;20.20;99.90
3942;DHT22;1985;48.592;8.850;2022-08-19T03:23:45;20.20;99.90
3942;DHT22;1985;48.592;8.850;2022-08-19T03:26:11;20.30;99.90
3942;DHT22;1985;48.592;8.850;2022-08-19T03:28:37;20.30;99.90
3942;DHT22;1985;48.592;8.850;2022-08-19T03:31:06;20.30;99.90
3942;DHT22;1985;48.592;8.850;2022-08-19T03:33:33;20.30;99.90
3942;DHT22;1985;48.592;8.850;2022-08-19T03:38:35;20.30;99.90
3942;DHT22;1985;48.592;8.850;2022-08-19T03:41:05;20.40;99.90
3942;DHT22;1985;48.592;8.850;2022-08-19T03:43:33;20.30;99.90
3942;DHT22;1985;48.592;8.850;2022-08-19T03:46:10;20.30;99.90
3942;DHT22;1985;48.592;8.850;2022-08-19T03:48:37;20.30;99.90
3942;DHT22;1985;48.592;8.850;2022-08-19T03:51:04;20.40;99.90
3942;DHT22;1985;48.592;8.850;2022-08-19T03:53:31;20.30;99.90
3942;DHT22;1985;48.592;8.850;2022-08-19T03:55:58;20.30;99.90
3942;DHT22;1985;48.592;8.850;2022-08-19T03:58:30;20.20;99.90
3942;DHT22;1985;48.592;8.850;2022-08-19T04:00:56;20.10;99.90
3942;DHT22;1985;48.592;8.850;2022-08-19T04:03:23;20.30;99.90
3942;DHT22;1985;48.592;8.850;2022-08-19T04:05:49;20.20;99.90
3942;DHT22;1985;48.592;8.850;2022-08-19T04:08:15;20.20;99.90
3942;DHT22;1985;48.592;8.850;2022-08-19T04:10:44;20.20;99.90
3942;DHT22;1985;48.592;8.850;2022-08-19T04:13:10;20.20;99.90
3942;DHT22;1985;48.592;8.850;2022-08-19T04:15:40;20.20;99.90
3942;DHT22;1985;48.592;8.850;2022-08-19T04:18:08;20.30;99.90
3942;DHT22;1985;48.592;8.850;2022-08-19T04:20:45;20.40;99.90
3942;DHT22;1985;48.592;8.850;2022-08-19T04:23:13;20.40;99.90
3942;DHT22;1985;48.592;8.850;2022-08-19T04:25:41;20.40;99.90
3942;DHT22;1985;48.592;8.850;2022-08-19T04:28:09;20.40;99.90
3942;DHT22;1985;48.592;8.850;2022-08-19T04:30:46;20.30;99.90
3942;DHT22;1985;48.592;8.850;2022-08-19T04:33:14;20.40;99.90
3942;DHT22;1985;48.592;8.850;2022-08-19T04:35:44;20.40;99.90
3942;DHT22;1985;48.592;8.850;2022-08-19T04:38:11;20.50;99.90
3942;DHT22;1985;48.592;8.850;2022-08-19T04:40:46;20.60;99.90
3942;DHT22;1985;48.592;8.850;2022-08-19T04:43:31;20.60;99.90
3942;DHT22;1985;48.592;8.850;2022-08-19T04:45:57;20.60;99.90
3942;DHT22;1985;48.592;8.850;2022-08-19T04:48:23;20.60;99.90
3942;DHT22;1985;48.592;8.850;2022-08-19T04:50:54;20.70;99.90
3942;DHT22;1985;48.592;8.850;2022-08-19T04:53:27;20.70;99.90
3942;DHT22;1985;48.592;8.850;2022-08-19T04:55:55;20.60;99.90
3942;DHT22;1985;48.592;8.850;2022-08-19T04:58:22;20.60;99.90
3942;DHT22;1985;48.592;8.850;2022-08-19T05:00:48;20.60;99.90
3942;DHT22;1985;48.592;8.850;2022-08-19T05:03:13;20.50;99.90
3942;DHT22;1985;48.592;8.850;2022-08-19T05:05:41;20.60;99.90
3942;DHT22;1985;48.592;8.850;2022-08-19T05:08:07;20.70;99.90
3942;DHT22;1985;48.592;8.850;2022-08-19T05:10:37;20.70;99.90
3942;DHT22;1985;48.592;8.850;2022-08-19T05:13:03;20.80;99.90
3942;DHT22;1985;48.592;8.850;2022-08-19T05:15:29;20.80;99.90
3942;DHT22;1985;48.592;8.850;2022-08-19T05:17:55;20.90;99.90
3942;DHT22;1985;48.592;8.850;2022-08-19T05:20:39;20.80;99.90
3942;DHT22;1985;48.592;8.850;2022-08-19T05:23:23;20.90;99.90
3942;DHT22;1985;48.592;8.850;2022-08-19T05:25:50;20.90;99.90
3942;DHT22;1985;48.592;8.850;2022-08-19T05:28:17;20.90;99.90
3942;DHT22;1985;48.592;8.850;2022-08-19T05:30:44;21.00;99.90
3942;DHT22;1985;48.592;8.850;2022-08-19T05:33:10;21.00;99.90
3942;DHT22;1985;48.592;8.850;2022-08-19T05:35:37;21.00;99.90
3942;DHT22;1985;48.592;8.850;2022-08-19T05:38:03;21.00;99.90
3942;DHT22;1985;48.592;8.850;2022-08-19T05:40:29;21.00;99.90
3942;DHT22;1985;48.592;8.850;2022-08-19T05:42:55;21.00;99.90
3942;DHT22;1985;48.592;8.850;2022-08-19T05:45:21;21.00;99.90
3942;DHT22;1985;48.592;8.850;2022-08-19T05:47:47;21.10;99.90
3942;DHT22;1985;48.592;8.850;2022-08-19T05:50:13;21.10;99.90
3942;DHT22;1985;48.592;8.850;2022-08-19T05:52:38;21.10;99.90
3942;DHT22;1985;48.592;8.850;2022-08-19T05:55:04;21.20;99.90
3942;DHT22;1985;48.592;8.850;2022-08-19T05:57:31;21.00;99.90
3942;DHT22;1985;48.592;8.850;2022-08-19T05:59:57;21.10;99.90
3942;DHT22;1985;48.592;8.850;2022-08-19T06:02:29;21.00;99.90
3942;DHT22;1985;48.592;8.850;2022-08-19T06:04:56;21.00;99.90
3942;DHT22;1985;48.592;8.850;2022-08-19T06:07:21;21.00;99.90
3942;DHT22;1985;48.592;8.850;2022-08-19T06:09:47;21.10;99.90
3942;DHT22;1985;48.592;8.850;2022-08-19T06:12:13;21.10;99.90
3942;DHT22;1985;48.592;8.850;2022-08-19T06:14:38;21.00;99.90
3942;DHT22;1985;48.592;8.850;2022-08-19T06:17:04;21.10;99.90
3942;DHT22;1985;48.592;8.850;2022-08-19T06:19:30;21.00;99.90
3942;DHT22;1985;48.592;8.850;2022-08-19T06:21:58;21.00;99.90
3942;DHT22;1985;48.592;8.850;2022-08-19T06:24:26;20.90;99.90
3942;DHT22;1985;48.592;8.850;2022-08-19T06:26:54;20.90;99.90
3942;DHT22;1985;48.592;8.850;2022-08-19T06:29:22;20.80;99.90
3942;DHT22;1985;48.592;8.850;2022-08-19T06:31:52;20.80;99.90
3942;DHT22;1985;48.592;8.850;2022-08-19T06:34:18;20.90;99.90
3942;DHT22;1985;48.592;8.850;2022-08-19T06:36:47;20.90;99.90
3942;DHT22;1985;48.592;8.850;2022-08-19T06:39:16;21.00;99.90
3942;DHT22;1985;48.592;8.850;2022-08-19T06:41:47;21.00;99.90
3942;DHT22;1985;48.592;8.850;2022-08-19T06:44:14;21.00;99.90
3942;DHT22;1985;48.592;8.850;2022-08-19T06:46:41;21.00;99.90
3942;DHT22;1985;48.592;8.850;2022-08-19T06:49:06;21.00;99.90
3942;DHT22;1985;48.592;8.850;2022-08-19T06:51:35;21.00;99.90
3942;DHT22;1985;48.592;8.850;2022-08-19T06:54:00;21.10;99.90
3942;DHT22;1985;48.592;8.850;2022-08-19T06:56:31;21.00;99.90
3942;DHT22;1985;48.592;8.850;2022-08-19T06:59:12;21.20;99.90
3942;DHT22;1985;48.592;8.850;2022-08-19T07:01:41;21.20;99.90
3942;DHT22;1985;48.592;8.850;2022-08-19T07:04:08;21.20;99.90
3942;DHT22;1985;48.592;8.850;2022-08-19T07:06:35;21.30;99.90
3942;DHT22;1985;48.592;8.850;2022-08-19T07:09:02;21.30;99.90
3942;DHT22;1985;48.592;8.850;2022-08-19T07:11:27;21.30;99.90
3942;DHT22;1985;48.592;8.850;2022-08-19T07:13:53;21.40;99.90
3942;DHT22;1985;48.592;8.850;2022-08-19T07:16:21;21.40;99.90
3942;DHT22;1985;48.592;8.850;2022-08-19T07:18:48;21.40;99.90
3942;DHT22;1985;48.592;8.850;2022-08-19T07:21:20;21.50;99.90
3942;DHT22;1985;48.592;8.850;2022-08-19T07:23:47;21.50;99.90
3942;DHT22;1985;48.592;8.850;2022-08-19T07:26:19;21.60;99.90
3942;DHT22;1985;48.592;8.850;2022-08-19T07:28:46;21.60;99.90
3942;DHT22;1985;48.592;8.850;2022-08-19T07:31:14;21.70;99.90
3942;DHT22;1985;48.592;8.850;2022-08-19T07:33:41;21.70;99.90
3942;DHT22;1985;48.592;8.850;2022-08-19T07:36:09;21.70;99.90
3942;DHT22;1985;48.592;8.850;2022-08-19T07:38:41;21.70;99.90
3942;DHT22;1985;48.592;8.850;2022-08-19T07:41:11;21.70;99.90
3942;DHT22;1985;48.592;8.850;2022-08-19T07:43:37;21.70;99.90
3942;DHT22;1985;48.592;8.850;2022-08-19T07:46:04;21.80;99.90
3942;DHT22;1985;48.592;8.850;2022-08-19T07:48:30;21.80;99.90
3942;DHT22;1985;48.592;8.850;2022-08-19T07:50:59;21.80;99.90
3942;DHT22;1985;48.592;8.850;2022-08-19T07:53:28;21.80;99.90
3942;DHT22;1985;48.592;8.850;2022-08-19T07:55:55;21.80;99.90
3942;DHT22;1985;48.592;8.850;2022-08-19T07:58:25;21.80;99.90
3942;DHT22;1985;48.592;8.850;2022-08-19T08:00:51;21.80;99.90
3942;DHT22;1985;48.592;8.850;2022-08-19T08:03:20;21.90;99.90
3942;DHT22;1985;48.592;8.850;2022-08-19T08:06:06;21.90;99.90
3942;DHT22;1985;48.592;8.850;2022-08-19T08:08:50;21.90;99.90
3942;DHT22;1985;48.592;8.850;2022-08-19T08:11:35;22.00;99.90
3942;DHT22;1985;48.592;8.850;2022-08-19T08:14:01;22.00;99.90
3942;DHT22;1985;48.592;8.850;2022-08-19T08:16:27;22.00;99.90
3942;DHT22;1985;48.592;8.850;2022-08-19T08:18:56;22.00;99.90
3942;DHT22;1985;48.592;8.850;2022-08-19T08:21:22;22.00;99.90
3942;DHT22;1985;48.592;8.850;2022-08-19T08:23:48;22.00;99.90
3942;DHT22;1985;48.592;8.850;2022-08-19T08:26:13;22.00;99.90
3942;DHT22;1985;48.592;8.850;2022-08-19T08:28:40;22.00;99.90
3942;DHT22;1985;48.592;8.850;2022-08-19T08:31:06;22.00;99.90
3942;DHT22;1985;48.592;8.850;2022-08-19T08:33:31;22.00;99.90
3942;DHT22;1985;48.592;8.850;2022-08-19T08:35:57;22.00;99.90
3942;DHT22;1985;48.592;8.850;2022-08-19T08:38:23;22.00;99.90
3942;DHT22;1985;48.592;8.850;2022-08-19T08:40:52;22.00;99.90
3942;DHT22;1985;48.592;8.850;2022-08-19T08:46:04;22.20;99.90
3942;DHT22;1985;48.592;8.850;2022-08-19T08:51:10;22.40;99.90
3942;DHT22;1985;48.592;8.850;2022-08-19T08:53:37;22.40;99.90
3942;DHT22;1985;48.592;8.850;2022-08-19T08:56:06;22.40;99.90
3942;DHT22;1985;48.592;8.850;2022-08-19T08:58:36;22.50;99.90
3942;DHT22;1985;48.592;8.850;2022-08-19T09:01:11;22.50;99.90
3942;DHT22;1985;48.592;8.850;2022-08-19T09:03:39;22.50;99.90
3942;DHT22;1985;48.592;8.850;2022-08-19T09:14:34;22.50;99.90
3942;DHT22;1985;48.592;8.850;2022-08-19T09:17:01;22.30;99.90
3942;DHT22;1985;48.592;8.850;2022-08-19T09:19:29;22.30;99.90
3942;DHT22;1985;48.592;8.850;2022-08-19T09:21:55;22.30;99.90
3942;DHT22;1985;48.592;8.850;2022-08-19T09:24:21;22.30;99.90
3942;DHT22;1985;48.592;8.850;2022-08-19T09:26:46;22.30;99.90
3942;DHT22;1985;48.592;8.850;2022-08-19T09:29:12;22.20;99.90
3942;DHT22;1985;48.592;8.850;2022-08-19T09:31:38;22.10;99.90
3942;DHT22;1985;48.592;8.850;2022-08-19T09:34:04;22.10;99.90
3942;DHT22;1985;48.592;8.850;2022-08-19T09:36:32;22.10;99.90
3942;DHT22;1985;48.592;8.850;2022-08-19T09:39:04;22.10;99.90
3942;DHT22;1985;48.592;8.850;2022-08-19T09:41:31;22.20;99.90
3942;DHT22;1985;48.592;8.850;2022-08-19T09:43:58;22.10;99.90
3942;DHT22;1985;48.592;8.850;2022-08-19T09:46:26;22.10;99.90
3942;DHT22;1985;48.592;8.850;2022-08-19T09:48:52;22.10;99.90
3942;DHT22;1985;48.592;8.850;2022-08-19T09:51:21;22.10;99.90
3942;DHT22;1985;48.592;8.850;2022-08-19T09:53:48;22.10;99.90
3942;DHT22;1985;48.592;8.850;2022-08-19T09:56:20;22.10;99.90
3942;DHT22;1985;48.592;8.850;2022-08-19T09:58:45;22.10;99.90
3942;DHT22;1985;48.592;8.850;2022-08-19T10:01:18;22.20;99.90
3942;DHT22;1985;48.592;8.850;2022-08-19T10:03:48;22.20;99.90
3942;DHT22;1985;48.592;8.850;2022-08-19T10:06:15;22.20;99.90
3942;DHT22;1985;48.592;8.850;2022-08-19T10:08:41;22.30;99.90
3942;DHT22;1985;48.592;8.850;2022-08-19T10:11:06;22.30;99.90
3942;DHT22;1985;48.592;8.850;2022-08-19T10:13:34;22.30;99.90
3942;DHT22;1985;48.592;8.850;2022-08-19T10:16:09;22.20;99.90
3942;DHT22;1985;48.592;8.850;2022-08-19T10:18:36;22.20;99.90
3942;DHT22;1985;48.592;8.850;2022-08-19T10:21:23;22.20;99.90
3942;DHT22;1985;48.592;8.850;2022-08-19T10:23:51;22.20;99.90
3942;DHT22;1985;48.592;8.850;2022-08-19T10:26:22;22.10;99.90
3942;DHT22;1985;48.592;8.850;2022-08-19T10:28:49;22.10;99.90
3942;DHT22;1985;48.592;8.850;2022-08-19T10:31:18;22.00;99.90
3942;DHT22;1985;48.592;8.850;2022-08-19T10:33:46;22.10;99.90
3942;DHT22;1985;48.592;8.850;2022-08-19T10:36:18;22.20;99.90
3942;DHT22;1985;48.592;8.850;2022-08-19T10:38:46;22.20;99.90
3942;DHT22;1985;48.592;8.850;2022-08-19T10:41:15;22.20;99.90
3942;DHT22;1985;48.592;8.850;2022-08-19T10:43:42;22.30;99.90
3942;DHT22;1985;48.592;8.850;2022-08-19T10:46:14;22.30;99.90
3942;DHT22;1985;48.592;8.850;2022-08-19T10:48:40;22.40;99.90
3942;DHT22;1985;48.592;8.850;2022-08-19T10:51:07;22.60;99.90
3942;DHT22;1985;48.592;8.850;2022-08-19T10:53:51;22.60;99.90
3942;DHT22;1985;48.592;8.850;2022-08-19T10:56:18;22.80;99.90
3942;DHT22;1985;48.592;8.850;2022-08-19T10:59:03;22.80;99.90
3942;DHT22;1985;48.592;8.850;2022-08-19T11:01:30;22.90;99.90
3942;DHT22;1985;48.592;8.850;2022-08-19T11:03:59;22.80;99.90
3942;DHT22;1985;48.592;8.850;2022-08-19T11:06:25;22.80;99.90
3942;DHT22;1985;48.592;8.850;2022-08-19T11:08:55;22.90;99.90
3942;DHT22;1985;48.592;8.850;2022-08-19T11:11:22;23.00;99.90
3942;DHT22;1985;48.592;8.850;2022-08-19T11:13:48;23.00;99.90
3942;DHT22;1985;48.592;8.850;2022-08-19T11:16:25;23.10;99.90
3942;DHT22;1985;48.592;8.850;2022-08-19T11:18:54;23.10;99.90
3942;DHT22;1985;48.592;8.850;2022-08-19T11:21:32;23.20;99.90
3942;DHT22;1985;48.592;8.850;2022-08-19T11:24:00;23.30;99.90
3942;DHT22;1985;48.592;8.850;2022-08-19T11:26:27;23.30;99.90
3942;DHT22;1985;48.592;8.850;2022-08-19T11:28:53;23.30;99.90
3942;DHT22;1985;48.592;8.850;2022-08-19T11:31:25;23.30;99.90
3942;DHT22;1985;48.592;8.850;2022-08-19T11:33:51;23.30;99.90
3942;DHT22;1985;48.592;8.850;2022-08-19T11:36:19;23.30;99.90
3942;DHT22;1985;48.592;8.850;2022-08-19T11:38:47;23.30;99.90
3942;DHT22;1985;48.592;8.850;2022-08-19T11:41:14;23.30;99.90
3942;DHT22;1985;48.592;8.850;2022-08-19T11:43:40;23.30;99.90
3942;DHT22;1985;48.592;8.850;2022-08-19T11:46:08;23.30;99.90
3942;DHT22;1985;48.592;8.850;2022-08-19T11:48:35;23.30;99.90
3942;DHT22;1985;48.592;8.850;2022-08-19T11:51:05;23.30;99.90
3942;DHT22;1985;48.592;8.850;2022-08-19T11:53:35;23.10;99.90
3942;DHT22;1985;48.592;8.850;2022-08-19T11:56:01;23.20;99.90
3942;DHT22;1985;48.592;8.850;2022-08-19T11:58:27;23.20;99.90
3942;DHT22;1985;48.592;8.850;2022-08-19T12:00:54;23.30;99.90
3942;DHT22;1985;48.592;8.850;2022-08-19T12:03:21;23.40;99.90
3942;DHT22;1985;48.592;8.850;2022-08-19T12:05:46;23.50;99.90
3942;DHT22;1985;48.592;8.850;2022-08-19T12:08:13;23.50;99.90
3942;DHT22;1985;48.592;8.850;2022-08-19T12:10:39;23.60;99.90
3942;DHT22;1985;48.592;8.850;2022-08-19T12:13:07;23.70;99.90
3942;DHT22;1985;48.592;8.850;2022-08-19T12:15:38;23.80;99.90
3942;DHT22;1985;48.592;8.850;2022-08-19T12:18:05;23.90;99.90
3942;DHT22;1985;48.592;8.850;2022-08-19T12:20:35;24.00;99.90
3942;DHT22;1985;48.592;8.850;2022-08-19T12:23:00;24.00;99.40
3942;DHT22;1985;48.592;8.850;2022-08-19T12:25:26;24.00;98.80
3942;DHT22;1985;48.592;8.850;2022-08-19T12:27:52;24.00;98.70
3942;DHT22;1985;48.592;8.850;2022-08-19T12:30:17;24.10;98.30
3942;DHT22;1985;48.592;8.850;2022-08-19T12:32:43;24.10;98.00
3942;DHT22;1985;48.592;8.850;2022-08-19T12:35:09;24.30;98.00
3942;DHT22;1985;48.592;8.850;2022-08-19T12:37:35;24.30;96.70
3942;DHT22;1985;48.592;8.850;2022-08-19T12:40:01;24.30;97.20
3942;DHT22;1985;48.592;8.850;2022-08-19T12:42:28;24.50;97.20
3942;DHT22;1985;48.592;8.850;2022-08-19T12:44:54;24.70;97.10
3942;DHT22;1985;48.592;8.850;2022-08-19T12:47:20;24.90;95.70
3942;DHT22;1985;48.592;8.850;2022-08-19T12:49:46;25.10;94.00
3942;DHT22;1985;48.592;8.850;2022-08-19T12:52:13;25.30;93.40
3942;DHT22;1985;48.592;8.850;2022-08-19T12:54:42;25.40;93.20
3942;DHT22;1985;48.592;8.850;2022-08-19T12:57:09;25.50;92.50
3942;DHT22;1985;48.592;8.850;2022-08-19T12:59:36;25.70;92.20
3942;DHT22;1985;48.592;8.850;2022-08-19T13:02:03;25.70;90.70
3942;DHT22;1985;48.592;8.850;2022-08-19T13:04:31;25.80;90.20
3942;DHT22;1985;48.592;8.850;2022-08-19T13:06:58;25.80;89.30
3942;DHT22;1985;48.592;8.850;2022-08-19T13:09:24;25.90;89.00
3942;DHT22;1985;48.592;8.850;2022-08-19T13:11:49;26.00;89.00
3942;DHT22;1985;48.592;8.850;2022-08-19T13:14:15;25.90;87.30
3942;DHT22;1985;48.592;8.850;2022-08-19T13:16:40;25.80;87.30
3942;DHT22;1985;48.592;8.850;2022-08-19T13:19:06;25.60;89.70
3942;DHT22;1985;48.592;8.850;2022-08-19T13:21:32;25.30;91.30
3942;DHT22;1985;48.592;8.850;2022-08-19T13:23:58;25.10;92.10
3942;DHT22;1985;48.592;8.850;2022-08-19T13:26:24;25.10;92.00
3942;DHT22;1985;48.592;8.850;2022-08-19T13:28:50;24.90;91.90
3942;DHT22;1985;48.592;8.850;2022-08-19T13:31:36;24.90;92.00
3942;DHT22;1985;48.592;8.850;2022-08-19T13:34:28;24.50;92.30
3942;DHT22;1985;48.592;8.850;2022-08-19T13:36:54;24.60;93.50
3942;DHT22;1985;48.592;8.850;2022-08-19T13:39:20;24.80;92.80
3942;DHT22;1985;48.592;8.850;2022-08-19T13:41:48;24.80;93.30
3942;DHT22;1985;48.592;8.850;2022-08-19T13:44:18;25.00;92.90
3942;DHT22;1985;48.592;8.850;2022-08-19T13:46:45;25.10;92.60
3942;DHT22;1985;48.592;8.850;2022-08-19T13:49:12;25.00;92.40
3942;DHT22;1985;48.592;8.850;2022-08-19T13:51:39;25.00;92.80
3942;DHT22;1985;48.592;8.850;2022-08-19T13:54:08;25.10;92.50
3942;DHT22;1985;48.592;8.850;2022-08-19T13:56:35;25.10;92.20
3942;DHT22;1985;48.592;8.850;2022-08-19T13:59:04;25.10;93.10
3942;DHT22;1985;48.592;8.850;2022-08-19T14:01:30;25.40;91.80
3942;DHT22;1985;48.592;8.850;2022-08-19T14:03:55;25.50;91.20
3942;DHT22;1985;48.592;8.850;2022-08-19T14:06:21;25.80;91.80
3942;DHT22;1985;48.592;8.850;2022-08-19T14:08:48;26.00;91.50
3942;DHT22;1985;48.592;8.850;2022-08-19T14:11:14;26.00;89.40
3942;DHT22;1985;48.592;8.850;2022-08-19T14:13:40;25.90;89.80
3942;DHT22;1985;48.592;8.850;2022-08-19T14:16:10;25.80;88.90
3942;DHT22;1985;48.592;8.850;2022-08-19T14:18:37;25.80;89.30
3942;DHT22;1985;48.592;8.850;2022-08-19T14:21:02;25.60;88.20
3942;DHT22;1985;48.592;8.850;2022-08-19T14:23:30;25.40;90.50
3942;DHT22;1985;48.592;8.850;2022-08-19T14:26:08;25.80;90.20
3942;DHT22;1985;48.592;8.850;2022-08-19T14:28:34;25.90;88.30
3942;DHT22;1985;48.592;8.850;2022-08-19T14:31:00;25.50;89.40
3942;DHT22;1985;48.592;8.850;2022-08-19T14:33:25;25.50;90.40
3942;DHT22;1985;48.592;8.850;2022-08-19T14:35:51;25.50;89.90
3942;DHT22;1985;48.592;8.850;2022-08-19T14:38:18;25.50;89.30
3942;DHT22;1985;48.592;8.850;2022-08-19T14:40:44;25.30;89.10
3942;DHT22;1985;48.592;8.850;2022-08-19T14:43:11;24.90;88.50
3942;DHT22;1985;48.592;8.850;2022-08-19T14:45:38;25.00;89.80
3942;DHT22;1985;48.592;8.850;2022-08-19T14:48:06;25.00;90.00
3942;DHT22;1985;48.592;8.850;2022-08-19T14:50:32;25.00;90.20
3942;DHT22;1985;48.592;8.850;2022-08-19T14:53:01;25.10;90.80
3942;DHT22;1985;48.592;8.850;2022-08-19T14:55:29;25.10;89.50
3942;DHT22;1985;48.592;8.850;2022-08-19T14:57:55;24.80;90.50
3942;DHT22;1985;48.592;8.850;2022-08-19T15:00:21;24.80;90.60
3942;DHT22;1985;48.592;8.850;2022-08-19T15:02:48;24.90;90.50
3942;DHT22;1985;48.592;8.850;2022-08-19T15:05:14;25.00;91.00
3942;DHT22;1985;48.592;8.850;2022-08-19T15:07:40;25.10;90.70
3942;DHT22;1985;48.592;8.850;2022-08-19T15:10:08;25.20;90.50
3942;DHT22;1985;48.592;8.850;2022-08-19T15:12:35;25.10;89.70
3942;DHT22;1985;48.592;8.850;2022-08-19T15:15:01;24.90;90.40
3942;DHT22;1985;48.592;8.850;2022-08-19T15:17:27;25.10;90.90
3942;DHT22;1985;48.592;8.850;2022-08-19T15:19:55;24.90;90.40
3942;DHT22;1985;48.592;8.850;2022-08-19T15:22:21;24.70;90.60
3942;DHT22;1985;48.592;8.850;2022-08-19T15:24:47;24.90;90.90
3942;DHT22;1985;48.592;8.850;2022-08-19T15:27:13;24.90;91.20
3942;DHT22;1985;48.592;8.850;2022-08-19T15:29:39;24.70;90.50
3942;DHT22;1985;48.592;8.850;2022-08-19T15:32:08;24.50;90.70
3942;DHT22;1985;48.592;8.850;2022-08-19T15:34:34;24.60;91.00
3942;DHT22;1985;48.592;8.850;2022-08-19T15:37:00;24.70;90.70
3942;DHT22;1985;48.592;8.850;2022-08-19T15:39:29;24.70;90.10
3942;DHT22;1985;48.592;8.850;2022-08-19T15:41:55;24.50;89.80
3942;DHT22;1985;48.592;8.850;2022-08-19T15:44:21;24.50;90.00
3942;DHT22;1985;48.592;8.850;2022-08-19T15:46:47;24.50;89.60
3942;DHT22;1985;48.592;8.850;2022-08-19T15:49:15;24.30;89.30
3942;DHT22;1985;48.592;8.850;2022-08-19T15:51:42;24.20;89.20
3942;DHT22;1985;48.592;8.850;2022-08-19T15:54:11;24.30;90.20
3942;DHT22;1985;48.592;8.850;2022-08-19T15:56:37;24.40;89.20
3942;DHT22;1985;48.592;8.850;2022-08-19T15:59:22;24.50;88.10
3942;DHT22;1985;48.592;8.850;2022-08-19T16:02:07;24.30;89.00
3942;DHT22;1985;48.592;8.850;2022-08-19T16:04:52;24.50;89.50
3942;DHT22;1985;48.592;8.850;2022-08-19T16:07:36;24.60;88.30
3942;DHT22;1985;48.592;8.850;2022-08-19T16:10:03;24.50;87.50
3942;DHT22;1985;48.592;8.850;2022-08-19T16:12:29;24.60;87.40
3942;DHT22;1985;48.592;8.850;2022-08-19T16:14:56;24.70;87.90
3942;DHT22;1985;48.592;8.850;2022-08-19T16:17:21;24.70;87.30
3942;DHT22;1985;48.592;8.850;2022-08-19T16:19:47;24.80;86.80
3942;DHT22;1985;48.592;8.850;2022-08-19T16:22:13;24.60;87.70
3942;DHT22;1985;48.592;8.850;2022-08-19T16:24:39;24.60;86.90